Time;durP1;ratioP1;P1;durP2;ratioP2;P2;SDS_P1;SDS_P2;PMS_P1;PMS_P2;Temp;Humidity;BMP_temperature;BMP_pressure;BME280_temperature;BME280_humidity;BME280_pressure;Samples;Min_cycle;Max_cycle;Signal;HPM_P1;HPM_P2
2020/12/05 00:00:52;;;;;;;;;;;0.10;99.90;;;;;;5096218;28;20007;-83
2020/12/05 00:03:23;;;;;;;;;;;0.10;99.90;;;;;;5096352;28;20360;-83
2020/12/05 00:05:51;;;;;;;;;;;0.10;99.90;;;;;;5095999;28;20056;-82
2020/12/05 00:08:20;;;;;;;;;;;0.10;99.90;;;;;;5096701;28;19912;-83
2020/12/05 00:11:04;;;;;;;;;;;0.10;99.90;;;;;;5097744;28;19916;-83
2020/12/05 00:13:29;;;;;;;;;;;0.10;99.90;;;;;;5096544;28;19935;-83
2020/12/05 00:16:08;;;;;;;;;;;0.10;99.90;;;;;;5096728;28;19908;-83
2020/12/05 00:18:33;;;;;;;;;;;0.10;99.90;;;;;;5097562;28;19916;-82
2020/12/05 00:20:59;;;;;;;;;;;0.10;99.90;;;;;;5101507;28;19922;-83
2020/12/05 00:23:24;;;;;;;;;;;0.10;99.90;;;;;;5096203;28;19915;-83
2020/12/05 00:26:05;;;;;;;;;;;0.10;99.90;;;;;;5095651;28;19908;-84
2020/12/05 00:28:31;;;;;;;;;;;0.10;99.90;;;;;;5095603;28;19915;-82
2020/12/05 00:31:02;;;;;;;;;;;0.10;99.90;;;;;;5097011;28;19909;-83
2020/12/05 00:33:40;;;;;;;;;;;0.10;99.90;;;;;;5096821;28;19931;-83
2020/12/05 00:36:06;;;;;;;;;;;0.10;99.90;;;;;;5095528;28;20371;-83
2020/12/05 00:38:32;;;;;;;;;;;0.10;99.90;;;;;;5095163;28;19912;-83
2020/12/05 00:41:04;;;;;;;;;;;0.20;99.90;;;;;;5095536;28;19923;-83
2020/12/05 00:43:39;;;;;;;;;;;0.20;99.90;;;;;;5095539;28;19908;-83
2020/12/05 00:46:11;;;;;;;;;;;0.20;99.90;;;;;;5096306;28;19912;-83
2020/12/05 00:48:39;;;;;;;;;;;0.20;99.90;;;;;;5095314;28;19955;-83
2020/12/05 00:51:12;;;;;;;;;;;0.20;99.90;;;;;;5089967;28;19919;-83
2020/12/05 00:53:39;;;;;;;;;;;0.20;99.90;;;;;;5095618;28;19908;-83
2020/12/05 00:56:11;;;;;;;;;;;0.10;99.90;;;;;;5095422;28;19944;-83
2020/12/05 00:58:41;;;;;;;;;;;0.10;99.90;;;;;;5094830;28;20310;-84
2020/12/05 01:01:28;;;;;;;;;;;0.10;99.90;;;;;;5094944;28;20010;-83
2020/12/05 01:04:03;;;;;;;;;;;0.00;99.90;;;;;;5095411;28;19935;-83
2020/12/05 01:06:34;;;;;;;;;;;-0.10;99.90;;;;;;5095069;28;19920;-83
2020/12/05 01:09:05;;;;;;;;;;;-0.10;99.90;;;;;;5095154;28;19908;-83
2020/12/05 01:11:34;;;;;;;;;;;-0.20;99.90;;;;;;5095309;28;19951;-83
2020/12/05 01:14:02;;;;;;;;;;;-0.20;99.90;;;;;;5095109;28;19954;-83
2020/12/05 01:16:31;;;;;;;;;;;-0.20;99.90;;;;;;5094810;28;19908;-84
2020/12/05 01:19:03;;;;;;;;;;;-0.30;99.90;;;;;;5095228;28;19930;-83
2020/12/05 01:21:37;;;;;;;;;;;-0.30;99.90;;;;;;5096333;28;19909;-83
2020/12/05 01:24:11;;;;;;;;;;;-0.40;99.90;;;;;;5094949;28;20418;-83
2020/12/05 01:26:37;;;;;;;;;;;-0.40;99.90;;;;;;5095845;28;19971;-83
2020/12/05 01:29:03;;;;;;;;;;;-0.40;99.90;;;;;;5096097;28;19912;-83
2020/12/05 01:31:35;;;;;;;;;;;-0.40;99.90;;;;;;5094908;28;19961;-83
2020/12/05 01:34:06;;;;;;;;;;;-0.50;99.90;;;;;;5096304;28;19959;-82
2020/12/05 01:36:38;;;;;;;;;;;-0.50;99.90;;;;;;5095553;28;19908;-82
2020/12/05 01:39:05;;;;;;;;;;;-0.40;99.90;;;;;;5095327;28;19908;-83
2020/12/05 01:41:33;;;;;;;;;;;-0.40;99.90;;;;;;5094756;28;19908;-83
2020/12/05 01:44:08;;;;;;;;;;;-0.40;99.90;;;;;;5094611;28;20269;-83
2020/12/05 01:46:42;;;;;;;;;;;-0.40;99.90;;;;;;5094194;28;19959;-82
2020/12/05 01:49:13;;;;;;;;;;;-0.40;99.90;;;;;;5095367;28;19999;-83
2020/12/05 01:51:49;;;;;;;;;;;-0.50;99.90;;;;;;5094105;28;19912;-83
2020/12/05 01:54:18;;;;;;;;;;;-0.50;99.90;;;;;;5093899;28;19908;-83
2020/12/05 01:56:59;;;;;;;;;;;-0.50;99.90;;;;;;5095462;28;19911;-83
2020/12/05 01:59:25;;;;;;;;;;;-0.50;99.90;;;;;;5094370;28;20356;-83
2020/12/05 02:02:03;;;;;;;;;;;-0.50;99.90;;;;;;5093912;28;19916;-83
2020/12/05 02:04:51;;;;;;;;;;;-0.50;99.90;;;;;;5093958;28;19908;-83
2020/12/05 02:07:28;;;;;;;;;;;-0.40;99.90;;;;;;5093344;28;19920;-83
2020/12/05 02:10:08;;;;;;;;;;;-0.40;99.90;;;;;;5091359;28;19916;-83
2020/12/05 02:12:47;;;;;;;;;;;-0.30;99.90;;;;;;5092881;28;20327;-82
2020/12/05 02:15:24;;;;;;;;;;;-0.30;99.90;;;;;;5094593;28;19908;-82
2020/12/05 02:18:00;;;;;;;;;;;-0.20;99.90;;;;;;5094381;28;19959;-83
2020/12/05 02:20:27;;;;;;;;;;;-0.20;99.90;;;;;;5093569;28;20352;-83
2020/12/05 02:22:53;;;;;;;;;;;-0.20;99.90;;;;;;5087093;28;20369;-83
2020/12/05 02:25:19;;;;;;;;;;;-0.10;99.90;;;;;;5094278;28;20006;-83
2020/12/05 02:27:48;;;;;;;;;;;0.00;99.90;;;;;;5093327;28;19924;-82
2020/12/05 02:30:15;;;;;;;;;;;0.00;99.90;;;;;;5072126;28;19983;-83
2020/12/05 02:32:52;;;;;;;;;;;0.10;99.90;;;;;;5072366;28;19915;-83
2020/12/05 02:35:18;;;;;;;;;;;0.10;99.90;;;;;;5071919;28;19912;-83
2020/12/05 02:37:51;;;;;;;;;;;0.10;99.90;;;;;;5055237;28;19916;-83
2020/12/05 02:40:23;;;;;;;;;;;0.20;99.90;;;;;;5072524;28;20389;-82
2020/12/05 02:42:58;;;;;;;;;;;0.20;99.90;;;;;;5072004;28;19908;-83
2020/12/05 02:45:24;;;;;;;;;;;0.30;99.90;;;;;;5071957;28;19912;-84
2020/12/05 02:47:49;;;;;;;;;;;0.40;99.90;;;;;;5055255;28;19950;-83
2020/12/05 02:50:31;;;;;;;;;;;0.40;99.90;;;;;;5072148;28;19963;-83
2020/12/05 02:53:01;;;;;;;;;;;0.50;99.90;;;;;;5055218;28;19909;-83
2020/12/05 02:55:28;;;;;;;;;;;0.60;99.90;;;;;;5072028;28;19916;-83
2020/12/05 02:57:58;;;;;;;;;;;0.60;99.90;;;;;;5071849;28;20054;-84
2020/12/05 03:00:39;;;;;;;;;;;0.70;99.90;;;;;;5058539;28;20001;-83
2020/12/05 03:03:09;;;;;;;;;;;0.70;99.90;;;;;;5093196;28;20401;-83
2020/12/05 03:05:37;;;;;;;;;;;0.70;99.90;;;;;;5071830;28;19908;-83
2020/12/05 03:08:06;;;;;;;;;;;0.70;99.90;;;;;;5055353;28;19956;-83
2020/12/05 03:10:34;;;;;;;;;;;0.80;99.90;;;;;;5071833;28;19909;-83
2020/12/05 03:13:06;;;;;;;;;;;0.70;99.90;;;;;;5072397;28;19919;-82
2020/12/05 03:15:40;;;;;;;;;;;0.70;99.90;;;;;;5055091;28;19947;-83
2020/12/05 03:18:13;;;;;;;;;;;0.80;99.90;;;;;;5072273;28;20400;-83
2020/12/05 03:20:47;;;;;;;;;;;0.70;99.90;;;;;;5031628;28;19909;-83
2020/12/05 03:23:23;;;;;;;;;;;0.70;99.90;;;;;;5017103;28;20019;-84
2020/12/05 03:25:51;;;;;;;;;;;0.70;99.90;;;;;;5019613;28;19916;-84
2020/12/05 03:28:27;;;;;;;;;;;0.70;99.90;;;;;;5035859;28;20353;-84
2020/12/05 03:31:00;;;;;;;;;;;0.70;99.90;;;;;;5015590;28;20035;-84
2020/12/05 03:33:29;;;;;;;;;;;0.70;99.90;;;;;;5018986;28;19971;-84
2020/12/05 03:35:57;;;;;;;;;;;0.70;99.90;;;;;;5028277;28;19962;-83
2020/12/05 03:38:36;;;;;;;;;;;0.70;99.90;;;;;;5058834;28;19955;-84
2020/12/05 03:41:07;;;;;;;;;;;0.80;99.90;;;;;;5075428;28;19908;-83
2020/12/05 03:43:38;;;;;;;;;;;0.80;99.90;;;;;;5059021;28;20277;-83
2020/12/05 03:46:06;;;;;;;;;;;0.70;99.90;;;;;;5087516;28;19920;-83
2020/12/05 03:48:34;;;;;;;;;;;0.70;99.90;;;;;;5096443;28;20257;-83
2020/12/05 03:51:03;;;;;;;;;;;0.70;99.90;;;;;;5097143;28;19981;-83
2020/12/05 03:53:34;;;;;;;;;;;0.70;99.90;;;;;;5096644;28;20361;-83
2020/12/05 03:56:15;;;;;;;;;;;0.60;99.90;;;;;;5097746;28;19967;-83
2020/12/05 03:58:57;;;;;;;;;;;0.70;99.90;;;;;;5097078;28;20314;-83
2020/12/05 04:01:46;;;;;;;;;;;0.60;99.90;;;;;;5096274;28;19908;-83
2020/12/05 04:04:14;;;;;;;;;;;0.50;99.90;;;;;;5095151;28;20054;-83
2020/12/05 04:06:45;;;;;;;;;;;0.40;99.90;;;;;;5106626;28;19920;-83
2020/12/05 04:09:13;;;;;;;;;;;0.30;99.90;;;;;;5094168;28;19956;-84
2020/12/05 04:11:42;;;;;;;;;;;0.30;99.90;;;;;;5092867;28;19907;-83
2020/12/05 04:14:10;;;;;;;;;;;0.30;99.90;;;;;;5099784;28;20005;-84
2020/12/05 04:16:41;;;;;;;;;;;0.20;99.90;;;;;;5099867;28;19915;-83
2020/12/05 04:19:14;;;;;;;;;;;0.20;99.90;;;;;;5099485;28;19908;-84
2020/12/05 04:21:49;;;;;;;;;;;0.20;99.90;;;;;;5099028;28;19912;-83
2020/12/05 04:24:15;;;;;;;;;;;0.20;99.90;;;;;;5099502;28;19908;-83
2020/12/05 04:26:47;;;;;;;;;;;0.10;99.90;;;;;;5099066;28;19916;-83
2020/12/05 04:29:20;;;;;;;;;;;0.10;99.90;;;;;;5099591;28;20052;-83
2020/12/05 04:31:50;;;;;;;;;;;0.10;99.90;;;;;;5099120;28;19907;-83
2020/12/05 04:34:21;;;;;;;;;;;0.00;99.90;;;;;;5097923;28;19962;-83
2020/12/05 04:36:51;;;;;;;;;;;0.00;99.90;;;;;;5117160;28;20024;-84
2020/12/05 04:39:20;;;;;;;;;;;0.00;99.90;;;;;;5099083;28;19908;-83
2020/12/05 04:41:49;;;;;;;;;;;-0.10;99.90;;;;;;5098770;28;19908;-83
2020/12/05 04:44:17;;;;;;;;;;;-0.10;99.90;;;;;;5099101;28;19959;-84
2020/12/05 04:46:46;;;;;;;;;;;-0.10;99.90;;;;;;5116622;28;19916;-83
2020/12/05 04:49:16;;;;;;;;;;;-0.20;99.90;;;;;;5098612;28;19907;-83
2020/12/05 04:51:48;;;;;;;;;;;-0.20;99.90;;;;;;5098669;28;19914;-83
2020/12/05 04:54:23;;;;;;;;;;;-0.20;99.90;;;;;;5098660;28;19958;-83
2020/12/05 04:56:53;;;;;;;;;;;-0.30;99.90;;;;;;5117209;28;19915;-83
2020/12/05 04:59:24;;;;;;;;;;;-0.30;99.90;;;;;;5099006;28;19912;-83
2020/12/05 05:01:55;;;;;;;;;;;-0.30;99.90;;;;;;5098804;28;19914;-83
2020/12/05 05:04:28;;;;;;;;;;;-0.40;99.90;;;;;;5116834;28;19915;-83
2020/12/05 05:07:05;;;;;;;;;;;-0.40;99.90;;;;;;5099000;28;20372;-83
2020/12/05 05:09:31;;;;;;;;;;;-0.40;99.90;;;;;;5098153;28;19908;-83
2020/12/05 05:12:05;;;;;;;;;;;-0.40;99.90;;;;;;5098955;28;19915;-83
2020/12/05 05:14:33;;;;;;;;;;;-0.50;99.90;;;;;;5098717;28;19908;-83
2020/12/05 05:17:07;;;;;;;;;;;-0.50;99.90;;;;;;5098567;28;19914;-84
2020/12/05 05:19:36;;;;;;;;;;;-0.50;99.90;;;;;;5098525;28;19912;-83
2020/12/05 05:22:05;;;;;;;;;;;-0.60;99.90;;;;;;5115805;28;19908;-83
2020/12/05 05:24:33;;;;;;;;;;;-0.60;99.90;;;;;;5098259;28;20324;-82
2020/12/05 05:27:02;;;;;;;;;;;-0.60;99.90;;;;;;5098658;28;19915;-82
2020/12/05 05:29:37;;;;;;;;;;;-0.60;99.90;;;;;;5118942;28;20019;-83
2020/12/05 05:34:39;;;;;;;;;;;-0.60;99.90;;;;;;5116013;28;19930;-83
2020/12/05 05:37:15;;;;;;;;;;;-0.60;99.90;;;;;;5097705;28;19907;-83
2020/12/05 05:39:56;;;;;;;;;;;-0.60;99.90;;;;;;5115873;28;19914;-83
2020/12/05 05:42:31;;;;;;;;;;;-0.60;99.90;;;;;;5097777;28;19915;-83
2020/12/05 05:45:41;;;;;;;;;;;-0.50;99.90;;;;;;5097092;28;19909;-83
2020/12/05 05:48:06;;;;;;;;;;;-0.50;99.90;;;;;;5115884;28;19916;-83
2020/12/05 05:50:33;;;;;;;;;;;-0.50;99.90;;;;;;5097848;28;19914;-83
2020/12/05 05:53:09;;;;;;;;;;;-0.50;99.90;;;;;;5116128;28;19915;-82
2020/12/05 05:55:44;;;;;;;;;;;-0.60;99.90;;;;;;5097216;28;19935;-83
2020/12/05 05:58:12;;;;;;;;;;;-0.60;99.90;;;;;;5097704;28;19914;-82
2020/12/05 06:00:43;;;;;;;;;;;-0.60;99.90;;;;;;5115241;28;20003;-83
2020/12/05 06:03:43;;;;;;;;;;;-0.60;99.90;;;;;;5097455;28;19908;-82
2020/12/05 06:06:11;;;;;;;;;;;-0.50;99.90;;;;;;5115140;28;20265;-83
2020/12/05 06:08:39;;;;;;;;;;;-0.50;99.90;;;;;;5115648;28;20268;-83
2020/12/05 06:11:13;;;;;;;;;;;-0.50;99.90;;;;;;5115568;28;19908;-83
2020/12/05 06:13:39;;;;;;;;;;;-0.50;99.90;;;;;;5115331;28;19908;-82
2020/12/05 06:16:07;;;;;;;;;;;-0.60;99.90;;;;;;5097151;28;19915;-83
2020/12/05 06:18:35;;;;;;;;;;;-0.60;99.90;;;;;;5097041;28;20315;-82
2020/12/05 06:21:01;;;;;;;;;;;-0.60;99.90;;;;;;5096923;28;20353;-83
2020/12/05 06:23:41;;;;;;;;;;;-0.70;99.90;;;;;;5115363;28;19918;-83
2020/12/05 06:26:14;;;;;;;;;;;-0.70;99.90;;;;;;5096628;28;19965;-82
2020/12/05 06:28:43;;;;;;;;;;;-0.80;99.90;;;;;;5114848;28;19908;-82
2020/12/05 06:31:11;;;;;;;;;;;-0.80;99.90;;;;;;5096527;28;20363;-83
2020/12/05 06:33:40;;;;;;;;;;;-0.90;99.90;;;;;;5114502;28;20361;-83
2020/12/05 06:36:25;;;;;;;;;;;-0.90;99.90;;;;;;5096809;28;19908;-83
2020/12/05 06:39:13;;;;;;;;;;;-0.90;99.90;;;;;;5096458;28;19911;-82
2020/12/05 06:41:46;;;;;;;;;;;-1.00;99.90;;;;;;5097071;28;19915;-82
2020/12/05 06:44:22;;;;;;;;;;;-1.00;99.90;;;;;;5096338;28;19908;-83
2020/12/05 06:47:10;;;;;;;;;;;-1.00;99.90;;;;;;5096387;28;20026;-82
2020/12/05 06:49:44;;;;;;;;;;;-1.00;99.90;;;;;;5114678;28;19907;-83
2020/12/05 06:52:25;;;;;;;;;;;-1.10;99.90;;;;;;5096959;28;19981;-82
2020/12/05 06:55:01;;;;;;;;;;;-1.10;99.90;;;;;;5096853;28;20432;-82
2020/12/05 06:57:30;;;;;;;;;;;-1.10;99.90;;;;;;5096123;28;19912;-82
2020/12/05 07:00:12;;;;;;;;;;;-1.10;99.90;;;;;;5108125;28;19908;-82
2020/12/05 07:02:38;;;;;;;;;;;-1.10;99.90;;;;;;5096750;28;19908;-82
2020/12/05 07:05:16;;;;;;;;;;;-1.10;99.90;;;;;;5096074;28;19931;-82
2020/12/05 07:07:41;;;;;;;;;;;-1.10;99.90;;;;;;5114234;28;19920;-82
2020/12/05 07:10:15;;;;;;;;;;;-1.00;99.90;;;;;;5095181;28;20322;-82
2020/12/05 07:12:44;;;;;;;;;;;-1.00;99.90;;;;;;5096303;28;19929;-83
2020/12/05 07:15:28;;;;;;;;;;;-0.90;99.90;;;;;;5096264;28;19962;-81
2020/12/05 07:17:57;;;;;;;;;;;-0.90;99.90;;;;;;5114433;28;20392;-82
2020/12/05 07:20:27;;;;;;;;;;;-0.80;99.90;;;;;;5096228;28;20360;-83
2020/12/05 07:22:58;;;;;;;;;;;-0.70;99.90;;;;;;5095165;28;19998;-82
2020/12/05 07:25:32;;;;;;;;;;;-0.70;99.90;;;;;;5095922;28;19907;-83
2020/12/05 07:28:01;;;;;;;;;;;-0.60;99.90;;;;;;5094553;28;19916;-83
2020/12/05 07:30:26;;;;;;;;;;;-0.60;99.90;;;;;;5090549;28;20364;-83
2020/12/05 07:32:55;;;;;;;;;;;-0.50;99.90;;;;;;5095637;28;19914;-82
2020/12/05 07:35:23;;;;;;;;;;;-0.40;99.90;;;;;;5114509;28;20241;-82
2020/12/05 07:38:12;;;;;;;;;;;-0.40;99.90;;;;;;5088438;28;20007;-82
2020/12/05 07:40:39;;;;;;;;;;;-0.30;99.90;;;;;;5075265;28;19912;-82
2020/12/05 07:43:22;;;;;;;;;;;-0.30;99.90;;;;;;5075727;28;19912;-82
2020/12/05 07:46:03;;;;;;;;;;;-0.20;99.90;;;;;;5075497;28;20012;-82
2020/12/05 07:48:28;;;;;;;;;;;-0.20;99.90;;;;;;5075317;28;19923;-82
2020/12/05 07:51:05;;;;;;;;;;;-0.20;99.90;;;;;;5075038;28;19908;-82
2020/12/05 07:53:34;;;;;;;;;;;-0.10;99.90;;;;;;5075145;28;19908;-82
2020/12/05 07:56:12;;;;;;;;;;;-0.10;99.90;;;;;;5092647;28;20478;-82
2020/12/05 07:58:49;;;;;;;;;;;-0.10;99.90;;;;;;5075189;28;20390;-82
2020/12/05 08:01:32;;;;;;;;;;;0.10;99.90;;;;;;5093057;28;19909;-82
2020/12/05 08:04:16;;;;;;;;;;;0.20;99.90;;;;;;5093490;28;19908;-82
2020/12/05 08:06:58;;;;;;;;;;;0.30;99.90;;;;;;5075111;28;19964;-82
2020/12/05 08:09:32;;;;;;;;;;;0.40;99.90;;;;;;5081394;28;19951;-82
2020/12/05 08:12:01;;;;;;;;;;;0.50;99.90;;;;;;5078941;28;19908;-82
2020/12/05 08:14:34;;;;;;;;;;;0.60;99.90;;;;;;5078300;28;20341;-83
2020/12/05 08:17:06;;;;;;;;;;;0.60;99.90;;;;;;5079109;28;19908;-82
2020/12/05 08:19:42;;;;;;;;;;;0.70;99.90;;;;;;5097006;28;19915;-84
2020/12/05 08:22:15;;;;;;;;;;;0.70;99.90;;;;;;5079208;28;20426;-83
2020/12/05 08:25:14;;;;;;;;;;;0.70;99.90;;;;;;5097359;28;19908;-83
2020/12/05 08:27:48;;;;;;;;;;;0.80;99.90;;;;;;5077685;28;20377;-82
2020/12/05 08:30:13;;;;;;;;;;;0.80;99.90;;;;;;5096736;28;19977;-82
2020/12/05 08:32:48;;;;;;;;;;;0.90;99.90;;;;;;5079350;28;19962;-82
2020/12/05 08:35:19;;;;;;;;;;;0.90;99.90;;;;;;5079056;28;19951;-82
2020/12/05 08:37:46;;;;;;;;;;;1.00;99.90;;;;;;5098153;28;19908;-82
2020/12/05 08:40:24;;;;;;;;;;;1.00;99.90;;;;;;5102600;28;19919;-82
2020/12/05 08:42:55;;;;;;;;;;;1.10;99.90;;;;;;5079033;28;19915;-82
2020/12/05 08:45:25;;;;;;;;;;;1.20;99.90;;;;;;5096852;28;19908;-82
2020/12/05 08:47:56;;;;;;;;;;;1.20;99.90;;;;;;5097009;28;19923;-81
2020/12/05 08:50:22;;;;;;;;;;;1.30;99.90;;;;;;5078759;28;19913;-82
2020/12/05 08:52:53;;;;;;;;;;;1.60;99.90;;;;;;5078577;28;20006;-83
2020/12/05 08:55:30;;;;;;;;;;;2.00;99.90;;;;;;5096577;28;19913;-83
2020/12/05 08:58:00;;;;;;;;;;;2.30;99.90;;;;;;5079967;28;19915;-82
2020/12/05 09:00:27;;;;;;;;;;;2.70;99.90;;;;;;5078848;28;20372;-83
2020/12/05 09:02:55;;;;;;;;;;;3.00;99.90;;;;;;5078382;28;19908;-82
2020/12/05 09:05:27;;;;;;;;;;;3.00;99.90;;;;;;5075149;28;19912;-82
2020/12/05 09:08:11;;;;;;;;;;;2.90;99.90;;;;;;5081554;28;19924;-84
2020/12/05 09:10:37;;;;;;;;;;;2.90;99.90;;;;;;5077936;28;19908;-83
2020/12/05 09:13:06;;;;;;;;;;;3.00;99.90;;;;;;5096222;28;20274;-84
2020/12/05 09:15:35;;;;;;;;;;;3.00;99.90;;;;;;5077883;28;19908;-84
2020/12/05 09:18:03;;;;;;;;;;;3.00;99.90;;;;;;5072342;28;20285;-82
2020/12/05 09:20:31;;;;;;;;;;;3.00;99.90;;;;;;5103672;28;19922;-83
2020/12/05 09:22:59;;;;;;;;;;;3.00;99.90;;;;;;5093059;28;19908;-82
2020/12/05 09:25:35;;;;;;;;;;;3.00;99.90;;;;;;5097925;28;20284;-82
2020/12/05 09:28:09;;;;;;;;;;;2.90;99.90;;;;;;5116339;28;19916;-82
2020/12/05 09:30:39;;;;;;;;;;;3.00;99.90;;;;;;5090346;28;19912;-83
2020/12/05 09:33:15;;;;;;;;;;;3.00;99.90;;;;;;5091646;28;19912;-83
2020/12/05 09:35:44;;;;;;;;;;;3.10;99.90;;;;;;5093839;28;19935;-83
2020/12/05 09:38:12;;;;;;;;;;;3.10;99.90;;;;;;5097482;28;19931;-83
2020/12/05 09:40:45;;;;;;;;;;;3.00;99.90;;;;;;5097560;28;19907;-82
2020/12/05 09:43:12;;;;;;;;;;;3.10;99.90;;;;;;5115453;28;20002;-83
2020/12/05 09:45:43;;;;;;;;;;;3.10;99.90;;;;;;5097867;28;19908;-83
2020/12/05 09:48:14;;;;;;;;;;;3.20;99.90;;;;;;5109987;28;19969;-82
2020/12/05 09:50:50;;;;;;;;;;;3.20;99.90;;;;;;5097465;28;19907;-82
2020/12/05 09:53:18;;;;;;;;;;;3.30;99.90;;;;;;5097680;28;19908;-82
2020/12/05 09:55:48;;;;;;;;;;;3.40;99.90;;;;;;5091558;28;19947;-83
2020/12/05 09:58:16;;;;;;;;;;;3.50;99.90;;;;;;5096910;28;19926;-83
2020/12/05 10:00:45;;;;;;;;;;;3.50;99.90;;;;;;5115176;28;19998;-84
2020/12/05 10:03:31;;;;;;;;;;;3.70;99.90;;;;;;5113898;28;20353;-82
2020/12/05 10:05:57;;;;;;;;;;;4.20;99.90;;;;;;5090508;28;20003;-82
2020/12/05 10:08:28;;;;;;;;;;;5.00;99.90;;;;;;5096738;28;19999;-83
2020/12/05 10:10:53;;;;;;;;;;;5.80;99.90;;;;;;5115615;28;20030;-82
2020/12/05 10:13:21;;;;;;;;;;;6.40;99.90;;;;;;5097066;28;19951;-83
2020/12/05 10:15:57;;;;;;;;;;;7.20;99.90;;;;;;5097121;28;20275;-82
2020/12/05 10:18:29;;;;;;;;;;;7.80;99.90;;;;;;5097229;28;19915;-82
2020/12/05 10:21:00;;;;;;;;;;;7.80;97.70;;;;;;5090556;28;20348;-82
2020/12/05 10:23:32;;;;;;;;;;;7.40;96.60;;;;;;5097217;28;20003;-82
2020/12/05 10:26:03;;;;;;;;;;;7.00;97.30;;;;;;5114839;28;19912;-82
2020/12/05 10:28:36;;;;;;;;;;;6.60;98.40;;;;;;5096901;28;19948;-82
2020/12/05 10:31:05;;;;;;;;;;;6.30;98.40;;;;;;5096616;28;19943;-83
2020/12/05 10:33:33;;;;;;;;;;;6.10;99.50;;;;;;5089580;28;20010;-82
2020/12/05 10:36:10;;;;;;;;;;;5.90;99.90;;;;;;5094067;28;19912;-82
2020/12/05 10:38:41;;;;;;;;;;;5.80;99.60;;;;;;5114647;28;19952;-82
2020/12/05 10:41:12;;;;;;;;;;;5.60;99.90;;;;;;5096632;28;19947;-82
2020/12/05 10:43:40;;;;;;;;;;;5.60;99.90;;;;;;5096210;28;19908;-82
2020/12/05 10:46:11;;;;;;;;;;;5.50;99.90;;;;;;5096415;28;20272;-82
2020/12/05 10:48:40;;;;;;;;;;;5.50;99.90;;;;;;5096661;28;19911;-82
2020/12/05 10:51:20;;;;;;;;;;;5.50;99.90;;;;;;5114441;28;19908;-82
2020/12/05 10:53:49;;;;;;;;;;;5.50;99.90;;;;;;5115076;28;19930;-81
2020/12/05 10:56:17;;;;;;;;;;;5.60;99.90;;;;;;5095728;28;20365;-82
2020/12/05 10:58:43;;;;;;;;;;;5.70;99.90;;;;;;5114421;28;19908;-82
2020/12/05 11:01:08;;;;;;;;;;;6.10;99.90;;;;;;5114803;28;20279;-81
2020/12/05 11:03:37;;;;;;;;;;;7.10;99.90;;;;;;5096315;28;19963;-81
2020/12/05 11:06:05;;;;;;;;;;;8.50;99.90;;;;;;5091020;28;19908;-82
2020/12/05 11:08:31;;;;;;;;;;;9.90;95.90;;;;;;5090692;28;20404;-82
2020/12/05 11:10:59;;;;;;;;;;;11.00;90.80;;;;;;5092141;28;19912;-82
2020/12/05 11:13:25;;;;;;;;;;;11.90;79.60;;;;;;5093143;28;19948;-81
2020/12/05 11:15:56;;;;;;;;;;;12.80;74.90;;;;;;5092867;28;19915;-82
2020/12/05 11:18:25;;;;;;;;;;;13.50;72.10;;;;;;5093798;28;19915;-82
2020/12/05 11:20:57;;;;;;;;;;;13.80;71.30;;;;;;5092807;28;20273;-82
2020/12/05 11:23:25;;;;;;;;;;;14.10;65.80;;;;;;5092180;28;19908;-81
2020/12/05 11:25:53;;;;;;;;;;;14.40;64.40;;;;;;5094387;28;19908;-82
2020/12/05 11:28:22;;;;;;;;;;;14.80;62.30;;;;;;5092814;28;19920;-82
2020/12/05 11:30:50;;;;;;;;;;;14.70;61.10;;;;;;5092527;28;19912;-83
2020/12/05 11:33:15;;;;;;;;;;;14.20;63.30;;;;;;5094245;28;20250;-82
2020/12/05 11:35:46;;;;;;;;;;;14.50;61.40;;;;;;5089302;28;20053;-83
2020/12/05 11:38:15;;;;;;;;;;;13.90;60.30;;;;;;5092685;28;20399;-83
2020/12/05 11:40:43;;;;;;;;;;;13.10;62.70;;;;;;5091393;28;19908;-82
2020/12/05 11:43:12;;;;;;;;;;;13.20;62.80;;;;;;5089461;28;19931;-83
2020/12/05 11:45:48;;;;;;;;;;;13.50;62.80;;;;;;5095973;28;19908;-82
2020/12/05 11:48:16;;;;;;;;;;;14.10;62.60;;;;;;5095427;28;20377;-83
2020/12/05 11:50:42;;;;;;;;;;;14.80;58.10;;;;;;5078996;28;19919;-82
2020/12/05 11:53:16;;;;;;;;;;;15.10;54.00;;;;;;5078913;28;19908;-82
2020/12/05 11:55:48;;;;;;;;;;;15.10;55.20;;;;;;5083083;28;19940;-81
2020/12/05 11:58:19;;;;;;;;;;;14.70;55.90;;;;;;5102679;28;19912;-82
2020/12/05 12:00:48;;;;;;;;;;;14.60;57.00;;;;;;5080149;28;19908;-82
2020/12/05 12:03:24;;;;;;;;;;;14.50;56.30;;;;;;5096384;28;19994;-83
2020/12/05 12:05:53;;;;;;;;;;;14.40;56.10;;;;;;5095389;28;19947;-81
2020/12/05 12:08:21;;;;;;;;;;;14.50;56.40;;;;;;5106537;28;19927;-82
2020/12/05 12:10:54;;;;;;;;;;;14.60;56.00;;;;;;5092364;28;19923;-82
2020/12/05 12:13:31;;;;;;;;;;;14.60;56.70;;;;;;5071304;28;19919;-83
2020/12/05 12:15:59;;;;;;;;;;;14.80;56.10;;;;;;5074765;28;19955;-84
2020/12/05 12:18:25;;;;;;;;;;;14.90;54.70;;;;;;5072852;28;19913;-82
2020/12/05 12:20:54;;;;;;;;;;;14.60;54.90;;;;;;5071793;28;20386;-81
2020/12/05 12:23:25;;;;;;;;;;;14.50;55.00;;;;;;5058529;28;19932;-82
2020/12/05 12:25:50;;;;;;;;;;;14.60;55.60;;;;;;5074581;28;19934;-83
2020/12/05 12:28:28;;;;;;;;;;;14.50;55.80;;;;;;5074477;28;19921;-82
2020/12/05 12:30:54;;;;;;;;;;;14.70;56.10;;;;;;5071705;28;19966;-83
2020/12/05 12:33:27;;;;;;;;;;;14.90;55.30;;;;;;5067708;28;20305;-82
2020/12/05 12:35:52;;;;;;;;;;;14.80;55.00;;;;;;5074437;28;19962;-82
2020/12/05 12:38:21;;;;;;;;;;;14.70;54.30;;;;;;5073929;28;20347;-82
2020/12/05 12:40:47;;;;;;;;;;;14.30;54.70;;;;;;5073184;28;19912;-82
2020/12/05 12:43:13;;;;;;;;;;;13.70;55.80;;;;;;5095692;28;19912;-82
2020/12/05 12:45:44;;;;;;;;;;;13.70;56.80;;;;;;5114820;28;19999;-83
2020/12/05 12:50:49;;;;;;;;;;;13.20;57.00;;;;;;5114555;28;19914;-84
2020/12/05 12:53:32;;;;;;;;;;;12.90;57.70;;;;;;5115529;28;19907;-82
2020/12/05 12:56:03;;;;;;;;;;;12.30;58.80;;;;;;5094892;28;20031;-83
2020/12/05 12:58:43;;;;;;;;;;;11.80;60.80;;;;;;5114799;28;19953;-83
2020/12/05 13:01:11;;;;;;;;;;;11.50;60.30;;;;;;5097452;28;19908;-81
2020/12/05 13:03:38;;;;;;;;;;;11.40;61.50;;;;;;5094510;28;19920;-82
2020/12/05 13:06:12;;;;;;;;;;;11.00;62.20;;;;;;5097454;28;20057;-82
2020/12/05 13:08:59;;;;;;;;;;;11.00;63.70;;;;;;5114101;28;20569;-82
2020/12/05 13:11:33;;;;;;;;;;;11.60;62.30;;;;;;5114147;28;19916;-82
2020/12/05 13:14:02;;;;;;;;;;;12.20;60.90;;;;;;5094422;28;20258;-83
2020/12/05 13:16:33;;;;;;;;;;;12.40;60.00;;;;;;5106100;28;19908;-82
2020/12/05 13:19:02;;;;;;;;;;;12.20;59.10;;;;;;5096014;28;20326;-83
2020/12/05 13:21:31;;;;;;;;;;;11.90;59.40;;;;;;5095563;28;19945;-82
2020/12/05 13:23:58;;;;;;;;;;;11.20;60.50;;;;;;5095030;28;19912;-82
2020/12/05 13:26:24;;;;;;;;;;;10.50;62.20;;;;;;5113622;28;19912;-83
2020/12/05 13:28:53;;;;;;;;;;;9.90;64.10;;;;;;5096746;28;19908;-82
2020/12/05 13:31:27;;;;;;;;;;;9.30;65.90;;;;;;5096705;28;19939;-82
2020/12/05 13:34:05;;;;;;;;;;;8.90;67.30;;;;;;5096765;28;20069;-81
2020/12/05 13:36:51;;;;;;;;;;;8.50;68.00;;;;;;5110936;28;20452;-83
2020/12/05 13:39:45;;;;;;;;;;;8.30;69.30;;;;;;5095900;28;19908;-82
2020/12/05 13:42:16;;;;;;;;;;;8.00;70.60;;;;;;5121043;28;19908;-83
2020/12/05 13:44:44;;;;;;;;;;;7.70;72.30;;;;;;5098443;28;20288;-82
2020/12/05 13:47:15;;;;;;;;;;;7.50;72.50;;;;;;5095621;28;20300;-83
2020/12/05 13:49:50;;;;;;;;;;;7.30;73.10;;;;;;5097162;28;19907;-82
2020/12/05 13:52:30;;;;;;;;;;;7.10;73.90;;;;;;5113922;28;19908;-83
2020/12/05 13:55:06;;;;;;;;;;;7.00;74.70;;;;;;5113474;28;20010;-82
2020/12/05 13:57:53;;;;;;;;;;;6.90;75.30;;;;;;5110837;28;20471;-81
2020/12/05 14:00:23;;;;;;;;;;;6.80;75.70;;;;;;5096916;28;20010;-83
2020/12/05 14:02:56;;;;;;;;;;;6.60;76.70;;;;;;5096239;28;19912;-83
2020/12/05 14:05:34;;;;;;;;;;;6.60;77.50;;;;;;5096194;28;19908;-82
2020/12/05 14:07:59;;;;;;;;;;;6.50;77.80;;;;;;5091210;28;19920;-83
2020/12/05 14:10:35;;;;;;;;;;;6.50;78.10;;;;;;5095943;28;19919;-82
2020/12/05 14:13:06;;;;;;;;;;;6.50;78.60;;;;;;5096262;28;19908;-82
2020/12/05 14:15:37;;;;;;;;;;;6.50;79.00;;;;;;5095206;28;19998;-85
2020/12/05 14:18:21;;;;;;;;;;;6.50;79.40;;;;;;5095309;28;19998;-83
2020/12/05 14:20:49;;;;;;;;;;;6.40;79.80;;;;;;5095257;28;19908;-82
2020/12/05 14:23:18;;;;;;;;;;;6.40;80.10;;;;;;5096711;28;19908;-83
2020/12/05 14:25:46;;;;;;;;;;;6.40;80.40;;;;;;5094985;28;20037;-83
2020/12/05 14:28:21;;;;;;;;;;;6.40;81.30;;;;;;5094043;28;19946;-82
2020/12/05 14:30:50;;;;;;;;;;;6.30;81.30;;;;;;5094757;28;19908;-83
2020/12/05 14:33:46;;;;;;;;;;;6.30;81.70;;;;;;5093951;28;19908;-84
2020/12/05 14:36:25;;;;;;;;;;;6.20;82.00;;;;;;5080515;28;19913;-83
2020/12/05 14:39:11;;;;;;;;;;;6.20;82.60;;;;;;5093947;28;19956;-83
2020/12/05 14:41:40;;;;;;;;;;;6.20;83.30;;;;;;5095073;28;19908;-83
2020/12/05 14:44:09;;;;;;;;;;;6.20;83.60;;;;;;5093792;28;19915;-83
2020/12/05 14:46:46;;;;;;;;;;;6.10;83.90;;;;;;5090758;28;19927;-82
2020/12/05 14:49:28;;;;;;;;;;;6.10;84.00;;;;;;5095536;28;19912;-83
2020/12/05 14:51:55;;;;;;;;;;;6.10;84.60;;;;;;5096627;28;19916;-83
2020/12/05 14:54:44;;;;;;;;;;;6.10;85.00;;;;;;5110705;28;19941;-83
2020/12/05 14:57:12;;;;;;;;;;;6.10;85.10;;;;;;5093600;28;19919;-82